sensor_id;sensor_type;location;lat;lon;timestamp;temperature;humidity
63899;HTU21D;50070;-32.946;-60.652;2023-02-19T00:01:31;21.68;23.33
63899;HTU21D;50070;-32.946;-60.652;2023-02-19T00:06:25;21.78;24.01
63899;HTU21D;50070;-32.946;-60.652;2023-02-19T00:08:52;21.66;24.74
63899;HTU21D;50070;-32.946;-60.652;2023-02-19T00:11:21;21.76;24.49
63899;HTU21D;50070;-32.946;-60.652;2023-02-19T00:13:51;21.59;24.49
63899;HTU21D;50070;-32.946;-60.652;2023-02-19T00:16:23;21.76;24.40
63899;HTU21D;50070;-32.946;-60.652;2023-02-19T00:18:51;21.54;24.74
63899;HTU21D;50070;-32.946;-60.652;2023-02-19T00:21:18;21.57;24.06
63899;HTU21D;50070;-32.946;-60.652;2023-02-19T00:23:49;21.46;24.52
63899;HTU21D;50070;-32.946;-60.652;2023-02-19T00:26:20;21.35;24.84
63899;HTU21D;50070;-32.946;-60.652;2023-02-19T00:28:49;21.40;24.78
63899;HTU21D;50070;-32.946;-60.652;2023-02-19T00:31:19;21.30;25.23
63899;HTU21D;50070;-32.946;-60.652;2023-02-19T00:33:47;21.22;24.98
63899;HTU21D;50070;-32.946;-60.652;2023-02-19T00:36:14;21.23;25.40
63899;HTU21D;50070;-32.946;-60.652;2023-02-19T00:38:43;21.29;25.26
63899;HTU21D;50070;-32.946;-60.652;2023-02-19T00:41:11;21.31;25.17
63899;HTU21D;50070;-32.946;-60.652;2023-02-19T00:43:55;21.21;25.49
63899;HTU21D;50070;-32.946;-60.652;2023-02-19T00:46:29;21.28;25.22
63899;HTU21D;50070;-32.946;-60.652;2023-02-19T00:48:57;21.28;25.36
63899;HTU21D;50070;-32.946;-60.652;2023-02-19T00:51:27;21.33;25.68
63899;HTU21D;50070;-32.946;-60.652;2023-02-19T00:53:54;21.44;25.61
63899;HTU21D;50070;-32.946;-60.652;2023-02-19T00:56:21;21.45;26.08
63899;HTU21D;50070;-32.946;-60.652;2023-02-19T00:58:49;21.63;25.12
63899;HTU21D;50070;-32.946;-60.652;2023-02-19T01:01:16;21.24;26.55
63899;HTU21D;50070;-32.946;-60.652;2023-02-19T01:03:43;21.23;25.95
63899;HTU21D;50070;-32.946;-60.652;2023-02-19T01:06:15;21.19;26.26
63899;HTU21D;50070;-32.946;-60.652;2023-02-19T01:08:43;21.21;25.73
63899;HTU21D;50070;-32.946;-60.652;2023-02-19T01:11:10;21.22;25.91
63899;HTU21D;50070;-32.946;-60.652;2023-02-19T01:13:38;21.18;26.01
63899;HTU21D;50070;-32.946;-60.652;2023-02-19T01:16:12;21.14;26.03
63899;HTU21D;50070;-32.946;-60.652;2023-02-19T01:18:40;21.25;26.18
63899;HTU21D;50070;-32.946;-60.652;2023-02-19T01:21:19;21.20;26.18
63899;HTU21D;50070;-32.946;-60.652;2023-02-19T01:23:47;21.16;26.46
63899;HTU21D;50070;-32.946;-60.652;2023-02-19T01:26:19;21.13;26.60
63899;HTU21D;50070;-32.946;-60.652;2023-02-19T01:28:47;21.21;26.62
63899;HTU21D;50070;-32.946;-60.652;2023-02-19T01:31:19;21.16;26.92
63899;HTU21D;50070;-32.946;-60.652;2023-02-19T01:33:52;21.17;27.12
63899;HTU21D;50070;-32.946;-60.652;2023-02-19T01:36:19;21.23;26.84
63899;HTU21D;50070;-32.946;-60.652;2023-02-19T01:38:46;21.11;28.00
63899;HTU21D;50070;-32.946;-60.652;2023-02-19T01:41:17;21.07;28.03
63899;HTU21D;50070;-32.946;-60.652;2023-02-19T01:46:41;21.05;28.73
63899;HTU21D;50070;-32.946;-60.652;2023-02-19T01:49:13;21.06;29.08
63899;HTU21D;50070;-32.946;-60.652;2023-02-19T01:51:45;20.92;29.19
63899;HTU21D;50070;-32.946;-60.652;2023-02-19T01:54:16;20.91;28.73
63899;HTU21D;50070;-32.946;-60.652;2023-02-19T01:56:46;20.90;28.58
63899;HTU21D;50070;-32.946;-60.652;2023-02-19T01:59:15;20.72;28.71
63899;HTU21D;50070;-32.946;-60.652;2023-02-19T02:01:42;20.88;28.27
63899;HTU21D;50070;-32.946;-60.652;2023-02-19T02:04:11;20.76;28.63
63899;HTU21D;50070;-32.946;-60.652;2023-02-19T02:06:50;20.78;28.27
63899;HTU21D;50070;-32.946;-60.652;2023-02-19T02:09:23;20.75;28.55
63899;HTU21D;50070;-32.946;-60.652;2023-02-19T02:12:10;20.79;28.55
63899;HTU21D;50070;-32.946;-60.652;2023-02-19T02:14:42;20.84;28.54
63899;HTU21D;50070;-32.946;-60.652;2023-02-19T02:17:29;20.77;29.06
63899;HTU21D;50070;-32.946;-60.652;2023-02-19T02:23:08;20.63;29.90
63899;HTU21D;50070;-32.946;-60.652;2023-02-19T02:25:50;20.77;29.68
63899;HTU21D;50070;-32.946;-60.652;2023-02-19T02:31:05;20.70;29.93
63899;HTU21D;50070;-32.946;-60.652;2023-02-19T02:33:59;20.65;29.68
63899;HTU21D;50070;-32.946;-60.652;2023-02-19T02:36:37;20.63;29.78
63899;HTU21D;50070;-32.946;-60.652;2023-02-19T02:39:08;20.54;29.93
63899;HTU21D;50070;-32.946;-60.652;2023-02-19T02:42:05;20.66;29.74
63899;HTU21D;50070;-32.946;-60.652;2023-02-19T02:44:49;20.83;29.51
63899;HTU21D;50070;-32.946;-60.652;2023-02-19T02:47:46;21.10;29.00
63899;HTU21D;50070;-32.946;-60.652;2023-02-19T02:50:25;21.05;29.07
63899;HTU21D;50070;-32.946;-60.652;2023-02-19T02:52:59;20.79;29.72
63899;HTU21D;50070;-32.946;-60.652;2023-02-19T02:55:47;20.88;29.71
63899;HTU21D;50070;-32.946;-60.652;2023-02-19T02:58:16;20.96;29.58
63899;HTU21D;50070;-32.946;-60.652;2023-02-19T03:00:45;20.64;30.25
63899;HTU21D;50070;-32.946;-60.652;2023-02-19T03:03:34;20.19;31.03
63899;HTU21D;50070;-32.946;-60.652;2023-02-19T03:06:06;20.19;32.14
63899;HTU21D;50070;-32.946;-60.652;2023-02-19T03:08:59;20.31;32.02
63899;HTU21D;50070;-32.946;-60.652;2023-02-19T03:11:24;19.99;33.01
63899;HTU21D;50070;-32.946;-60.652;2023-02-19T03:14:21;19.96;33.21
63899;HTU21D;50070;-32.946;-60.652;2023-02-19T03:17:31;20.13;34.31
63899;HTU21D;50070;-32.946;-60.652;2023-02-19T03:20:21;20.05;34.90
63899;HTU21D;50070;-32.946;-60.652;2023-02-19T03:22:51;20.05;35.03
63899;HTU21D;50070;-32.946;-60.652;2023-02-19T03:25:27;20.02;35.50
63899;HTU21D;50070;-32.946;-60.652;2023-02-19T03:28:16;20.04;35.67
63899;HTU21D;50070;-32.946;-60.652;2023-02-19T03:30:51;20.27;35.44
63899;HTU21D;50070;-32.946;-60.652;2023-02-19T03:33:25;20.10;35.80
63899;HTU21D;50070;-32.946;-60.652;2023-02-19T03:36:01;19.90;35.66
63899;HTU21D;50070;-32.946;-60.652;2023-02-19T03:38:56;19.81;35.00
63899;HTU21D;50070;-32.946;-60.652;2023-02-19T03:47:08;20.21;34.21
63899;HTU21D;50070;-32.946;-60.652;2023-02-19T03:57:29;20.47;30.22
63899;HTU21D;50070;-32.946;-60.652;2023-02-19T04:00:10;20.47;30.49
63899;HTU21D;50070;-32.946;-60.652;2023-02-19T04:03:07;20.53;29.82
63899;HTU21D;50070;-32.946;-60.652;2023-02-19T04:05:42;20.48;29.48
63899;HTU21D;50070;-32.946;-60.652;2023-02-19T04:08:16;20.49;29.64
63899;HTU21D;50070;-32.946;-60.652;2023-02-19T04:10:47;20.60;30.13
63899;HTU21D;50070;-32.946;-60.652;2023-02-19T04:13:43;20.65;29.65
63899;HTU21D;50070;-32.946;-60.652;2023-02-19T04:16:20;20.20;30.15
63899;HTU21D;50070;-32.946;-60.652;2023-02-19T04:18:51;20.28;30.37
63899;HTU21D;50070;-32.946;-60.652;2023-02-19T04:21:22;20.33;30.00
63899;HTU21D;50070;-32.946;-60.652;2023-02-19T04:23:51;20.41;29.44
63899;HTU21D;50070;-32.946;-60.652;2023-02-19T04:26:21;20.28;30.09
63899;HTU21D;50070;-32.946;-60.652;2023-02-19T04:28:49;20.11;30.36
63899;HTU21D;50070;-32.946;-60.652;2023-02-19T04:31:19;19.99;30.61
63899;HTU21D;50070;-32.946;-60.652;2023-02-19T04:33:46;20.31;30.22
63899;HTU21D;50070;-32.946;-60.652;2023-02-19T04:36:14;20.28;30.38
63899;HTU21D;50070;-32.946;-60.652;2023-02-19T04:38:40;20.27;30.65
63899;HTU21D;50070;-32.946;-60.652;2023-02-19T04:41:08;20.29;30.79
63899;HTU21D;50070;-32.946;-60.652;2023-02-19T04:43:35;20.05;31.85
63899;HTU21D;50070;-32.946;-60.652;2023-02-19T04:46:02;20.04;31.70
63899;HTU21D;50070;-32.946;-60.652;2023-02-19T04:48:29;20.19;31.32
63899;HTU21D;50070;-32.946;-60.652;2023-02-19T04:50:55;20.05;31.98
63899;HTU21D;50070;-32.946;-60.652;2023-02-19T04:53:22;19.71;33.05
63899;HTU21D;50070;-32.946;-60.652;2023-02-19T04:55:49;20.00;31.64
63899;HTU21D;50070;-32.946;-60.652;2023-02-19T04:58:18;19.97;31.38
63899;HTU21D;50070;-32.946;-60.652;2023-02-19T05:00:46;20.02;31.22
63899;HTU21D;50070;-32.946;-60.652;2023-02-19T05:03:16;19.87;31.71
63899;HTU21D;50070;-32.946;-60.652;2023-02-19T05:05:43;19.80;31.52
63899;HTU21D;50070;-32.946;-60.652;2023-02-19T05:08:15;19.74;31.15
63899;HTU21D;50070;-32.946;-60.652;2023-02-19T05:10:42;19.98;30.60
63899;HTU21D;50070;-32.946;-60.652;2023-02-19T05:13:08;19.92;30.34
63899;HTU21D;50070;-32.946;-60.652;2023-02-19T05:15:39;19.91;29.90
63899;HTU21D;50070;-32.946;-60.652;2023-02-19T05:18:06;19.92;29.75
63899;HTU21D;50070;-32.946;-60.652;2023-02-19T05:20:34;20.13;29.27
63899;HTU21D;50070;-32.946;-60.652;2023-02-19T05:23:01;19.88;29.80
63899;HTU21D;50070;-32.946;-60.652;2023-02-19T05:25:28;20.02;29.54
63899;HTU21D;50070;-32.946;-60.652;2023-02-19T05:27:55;19.95;30.14
63899;HTU21D;50070;-32.946;-60.652;2023-02-19T05:33:12;20.00;29.32
63899;HTU21D;50070;-32.946;-60.652;2023-02-19T05:35:41;20.02;30.11
63899;HTU21D;50070;-32.946;-60.652;2023-02-19T05:38:08;19.83;30.29
63899;HTU21D;50070;-32.946;-60.652;2023-02-19T05:40:35;19.72;30.27
63899;HTU21D;50070;-32.946;-60.652;2023-02-19T05:43:06;19.82;30.41
63899;HTU21D;50070;-32.946;-60.652;2023-02-19T05:45:34;19.82;30.71
63899;HTU21D;50070;-32.946;-60.652;2023-02-19T05:48:02;19.72;31.19
63899;HTU21D;50070;-32.946;-60.652;2023-02-19T05:50:31;19.68;31.77
63899;HTU21D;50070;-32.946;-60.652;2023-02-19T05:53:04;19.70;31.97
63899;HTU21D;50070;-32.946;-60.652;2023-02-19T05:55:35;19.73;32.26
63899;HTU21D;50070;-32.946;-60.652;2023-02-19T05:58:02;19.74;32.18
63899;HTU21D;50070;-32.946;-60.652;2023-02-19T06:00:31;18.79;35.08
63899;HTU21D;50070;-32.946;-60.652;2023-02-19T06:02:59;18.35;38.30
63899;HTU21D;50070;-32.946;-60.652;2023-02-19T06:05:27;18.03;39.90
63899;HTU21D;50070;-32.946;-60.652;2023-02-19T06:07:54;18.27;40.23
63899;HTU21D;50070;-32.946;-60.652;2023-02-19T06:10:21;18.07;40.88
63899;HTU21D;50070;-32.946;-60.652;2023-02-19T06:12:52;17.80;41.59
63899;HTU21D;50070;-32.946;-60.652;2023-02-19T06:15:18;17.76;41.29
63899;HTU21D;50070;-32.946;-60.652;2023-02-19T06:17:45;17.74;41.13
63899;HTU21D;50070;-32.946;-60.652;2023-02-19T06:20:15;17.99;40.15
63899;HTU21D;50070;-32.946;-60.652;2023-02-19T06:22:42;18.11;40.08
63899;HTU21D;50070;-32.946;-60.652;2023-02-19T06:25:09;18.40;39.54
63899;HTU21D;50070;-32.946;-60.652;2023-02-19T06:27:38;18.03;39.38
63899;HTU21D;50070;-32.946;-60.652;2023-02-19T06:30:05;18.12;37.53
63899;HTU21D;50070;-32.946;-60.652;2023-02-19T06:32:32;18.14;37.69
63899;HTU21D;50070;-32.946;-60.652;2023-02-19T06:34:59;18.30;36.84
63899;HTU21D;50070;-32.946;-60.652;2023-02-19T06:37:25;17.96;37.31
63899;HTU21D;50070;-32.946;-60.652;2023-02-19T06:39:52;18.18;36.95
63899;HTU21D;50070;-32.946;-60.652;2023-02-19T06:42:19;18.37;36.62
63899;HTU21D;50070;-32.946;-60.652;2023-02-19T06:44:46;18.25;36.58
63899;HTU21D;50070;-32.946;-60.652;2023-02-19T06:47:12;18.32;36.53
63899;HTU21D;50070;-32.946;-60.652;2023-02-19T06:49:39;18.40;36.47
63899;HTU21D;50070;-32.946;-60.652;2023-02-19T06:52:06;17.98;37.75
63899;HTU21D;50070;-32.946;-60.652;2023-02-19T06:54:33;17.94;38.10
63899;HTU21D;50070;-32.946;-60.652;2023-02-19T06:57:00;18.20;38.44
63899;HTU21D;50070;-32.946;-60.652;2023-02-19T06:59:27;17.32;42.78
63899;HTU21D;50070;-32.946;-60.652;2023-02-19T07:01:54;17.68;43.38
63899;HTU21D;50070;-32.946;-60.652;2023-02-19T07:04:20;17.35;45.87
63899;HTU21D;50070;-32.946;-60.652;2023-02-19T07:06:50;16.77;47.70
63899;HTU21D;50070;-32.946;-60.652;2023-02-19T07:09:17;16.70;47.90
63899;HTU21D;50070;-32.946;-60.652;2023-02-19T07:11:44;16.71;46.76
63899;HTU21D;50070;-32.946;-60.652;2023-02-19T07:14:17;16.69;47.26
63899;HTU21D;50070;-32.946;-60.652;2023-02-19T07:16:44;16.73;46.95
63899;HTU21D;50070;-32.946;-60.652;2023-02-19T07:19:13;17.33;45.54
63899;HTU21D;50070;-32.946;-60.652;2023-02-19T07:21:41;17.21;45.50
63899;HTU21D;50070;-32.946;-60.652;2023-02-19T07:24:08;17.03;45.80
63899;HTU21D;50070;-32.946;-60.652;2023-02-19T07:26:36;17.43;44.76
63899;HTU21D;50070;-32.946;-60.652;2023-02-19T07:29:03;17.60;43.68
63899;HTU21D;50070;-32.946;-60.652;2023-02-19T07:31:30;17.38;44.15
63899;HTU21D;50070;-32.946;-60.652;2023-02-19T07:33:58;17.25;44.27
63899;HTU21D;50070;-32.946;-60.652;2023-02-19T07:36:26;17.23;44.29
63899;HTU21D;50070;-32.946;-60.652;2023-02-19T07:38:54;17.55;43.22
63899;HTU21D;50070;-32.946;-60.652;2023-02-19T07:41:22;17.69;42.60
63899;HTU21D;50070;-32.946;-60.652;2023-02-19T07:43:49;17.87;41.71
63899;HTU21D;50070;-32.946;-60.652;2023-02-19T07:46:16;17.90;41.04
63899;HTU21D;50070;-32.946;-60.652;2023-02-19T07:48:43;18.07;40.62
63899;HTU21D;50070;-32.946;-60.652;2023-02-19T07:51:13;18.08;40.76
63899;HTU21D;50070;-32.946;-60.652;2023-02-19T07:53:45;17.82;41.56
63899;HTU21D;50070;-32.946;-60.652;2023-02-19T07:56:12;18.05;40.28
63899;HTU21D;50070;-32.946;-60.652;2023-02-19T07:58:40;18.03;40.71
63899;HTU21D;50070;-32.946;-60.652;2023-02-19T08:01:20;17.87;40.94
63899;HTU21D;50070;-32.946;-60.652;2023-02-19T08:04:05;17.73;41.19
63899;HTU21D;50070;-32.946;-60.652;2023-02-19T08:06:32;17.46;41.75
63899;HTU21D;50070;-32.946;-60.652;2023-02-19T08:08:59;17.61;42.17
63899;HTU21D;50070;-32.946;-60.652;2023-02-19T08:11:26;17.51;41.65
63899;HTU21D;50070;-32.946;-60.652;2023-02-19T08:14:11;17.43;41.92
63899;HTU21D;50070;-32.946;-60.652;2023-02-19T08:16:37;17.30;42.03
63899;HTU21D;50070;-32.946;-60.652;2023-02-19T08:19:05;17.39;42.16
63899;HTU21D;50070;-32.946;-60.652;2023-02-19T08:21:32;17.52;41.52
63899;HTU21D;50070;-32.946;-60.652;2023-02-19T08:23:59;17.61;41.60
63899;HTU21D;50070;-32.946;-60.652;2023-02-19T08:26:26;17.45;42.08
63899;HTU21D;50070;-32.946;-60.652;2023-02-19T08:28:52;17.81;40.59
63899;HTU21D;50070;-32.946;-60.652;2023-02-19T08:31:19;17.93;40.09
63899;HTU21D;50070;-32.946;-60.652;2023-02-19T08:33:46;17.87;40.06
63899;HTU21D;50070;-32.946;-60.652;2023-02-19T08:36:13;17.89;39.79
63899;HTU21D;50070;-32.946;-60.652;2023-02-19T08:38:39;17.91;39.85
63899;HTU21D;50070;-32.946;-60.652;2023-02-19T08:41:11;17.84;38.56
63899;HTU21D;50070;-32.946;-60.652;2023-02-19T08:43:39;18.05;36.59
63899;HTU21D;50070;-32.946;-60.652;2023-02-19T08:46:07;18.05;35.45
63899;HTU21D;50070;-32.946;-60.652;2023-02-19T08:48:35;18.04;35.50
63899;HTU21D;50070;-32.946;-60.652;2023-02-19T08:51:05;18.07;35.68
63899;HTU21D;50070;-32.946;-60.652;2023-02-19T08:53:34;18.08;35.24
63899;HTU21D;50070;-32.946;-60.652;2023-02-19T08:56:06;18.00;35.30
63899;HTU21D;50070;-32.946;-60.652;2023-02-19T08:58:33;18.06;34.78
63899;HTU21D;50070;-32.946;-60.652;2023-02-19T09:01:00;17.94;35.23
63899;HTU21D;50070;-32.946;-60.652;2023-02-19T09:03:27;17.84;35.15
63899;HTU21D;50070;-32.946;-60.652;2023-02-19T09:05:54;17.83;34.65
63899;HTU21D;50070;-32.946;-60.652;2023-02-19T09:08:20;17.90;34.67
63899;HTU21D;50070;-32.946;-60.652;2023-02-19T09:10:58;17.95;34.33
63899;HTU21D;50070;-32.946;-60.652;2023-02-19T09:13:28;17.81;35.79
63899;HTU21D;50070;-32.946;-60.652;2023-02-19T09:15:56;17.85;34.76
63899;HTU21D;50070;-32.946;-60.652;2023-02-19T09:18:28;17.99;34.55
63899;HTU21D;50070;-32.946;-60.652;2023-02-19T09:20:59;17.74;34.79
63899;HTU21D;50070;-32.946;-60.652;2023-02-19T09:23:30;17.79;34.85
63899;HTU21D;50070;-32.946;-60.652;2023-02-19T09:25:59;17.92;34.97
63899;HTU21D;50070;-32.946;-60.652;2023-02-19T09:28:26;17.76;35.44
63899;HTU21D;50070;-32.946;-60.652;2023-02-19T09:30:53;17.73;35.53
63899;HTU21D;50070;-32.946;-60.652;2023-02-19T09:33:20;17.78;35.73
63899;HTU21D;50070;-32.946;-60.652;2023-02-19T09:35:46;17.75;36.41
63899;HTU21D;50070;-32.946;-60.652;2023-02-19T09:38:13;17.67;37.05
63899;HTU21D;50070;-32.946;-60.652;2023-02-19T09:40:40;17.51;37.60
63899;HTU21D;50070;-32.946;-60.652;2023-02-19T09:43:11;17.61;37.73
63899;HTU21D;50070;-32.946;-60.652;2023-02-19T09:45:41;17.30;38.58
63899;HTU21D;50070;-32.946;-60.652;2023-02-19T09:48:09;17.49;38.25
63899;HTU21D;50070;-32.946;-60.652;2023-02-19T09:50:40;17.62;38.00
63899;HTU21D;50070;-32.946;-60.652;2023-02-19T09:53:26;17.51;38.06
63899;HTU21D;50070;-32.946;-60.652;2023-02-19T09:55:55;17.40;38.59
63899;HTU21D;50070;-32.946;-60.652;2023-02-19T09:58:55;17.63;39.04
63899;HTU21D;50070;-32.946;-60.652;2023-02-19T10:01:29;17.52;38.56
63899;HTU21D;50070;-32.946;-60.652;2023-02-19T10:03:57;17.52;38.48
63899;HTU21D;50070;-32.946;-60.652;2023-02-19T10:06:26;17.38;39.36
63899;HTU21D;50070;-32.946;-60.652;2023-02-19T10:11:37;17.49;38.66
63899;HTU21D;50070;-32.946;-60.652;2023-02-19T10:14:06;17.36;39.65
63899;HTU21D;50070;-32.946;-60.652;2023-02-19T10:16:38;17.19;39.63
63899;HTU21D;50070;-32.946;-60.652;2023-02-19T10:19:13;17.26;39.49
63899;HTU21D;50070;-32.946;-60.652;2023-02-19T10:21:43;17.28;39.73
63899;HTU21D;50070;-32.946;-60.652;2023-02-19T10:24:19;17.17;39.56
63899;HTU21D;50070;-32.946;-60.652;2023-02-19T10:26:48;17.25;39.62
63899;HTU21D;50070;-32.946;-60.652;2023-02-19T10:29:18;17.05;40.52
63899;HTU21D;50070;-32.946;-60.652;2023-02-19T10:31:47;16.95;40.97
63899;HTU21D;50070;-32.946;-60.652;2023-02-19T10:34:20;16.82;41.54
63899;HTU21D;50070;-32.946;-60.652;2023-02-19T10:36:51;16.89;41.86
63899;HTU21D;50070;-32.946;-60.652;2023-02-19T10:41:55;16.72;43.29
63899;HTU21D;50070;-32.946;-60.652;2023-02-19T10:44:28;16.64;43.34
63899;HTU21D;50070;-32.946;-60.652;2023-02-19T10:46:58;16.63;43.16
63899;HTU21D;50070;-32.946;-60.652;2023-02-19T10:49:41;16.74;43.70
63899;HTU21D;50070;-32.946;-60.652;2023-02-19T10:52:27;16.61;43.16
63899;HTU21D;50070;-32.946;-60.652;2023-02-19T10:55:12;16.70;42.67
63899;HTU21D;50070;-32.946;-60.652;2023-02-19T10:57:40;16.76;42.22
63899;HTU21D;50070;-32.946;-60.652;2023-02-19T11:00:27;16.89;42.24
63899;HTU21D;50070;-32.946;-60.652;2023-02-19T11:06:00;16.93;42.21
63899;HTU21D;50070;-32.946;-60.652;2023-02-19T11:08:52;17.06;42.30
63899;HTU21D;50070;-32.946;-60.652;2023-02-19T11:13:49;16.80;44.35
63899;HTU21D;50070;-32.946;-60.652;2023-02-19T11:16:17;16.98;44.26
63899;HTU21D;50070;-32.946;-60.652;2023-02-19T11:18:44;16.90;44.99
63899;HTU21D;50070;-32.946;-60.652;2023-02-19T11:21:28;16.98;44.90
63899;HTU21D;50070;-32.946;-60.652;2023-02-19T11:24:02;16.87;45.79
63899;HTU21D;50070;-32.946;-60.652;2023-02-19T11:26:31;16.94;45.51
63899;HTU21D;50070;-32.946;-60.652;2023-02-19T11:29:16;17.11;45.88
63899;HTU21D;50070;-32.946;-60.652;2023-02-19T11:31:50;17.19;46.66
63899;HTU21D;50070;-32.946;-60.652;2023-02-19T11:36:47;17.31;45.69
63899;HTU21D;50070;-32.946;-60.652;2023-02-19T11:39:26;17.61;44.55
63899;HTU21D;50070;-32.946;-60.652;2023-02-19T11:42:23;17.74;44.38
63899;HTU21D;50070;-32.946;-60.652;2023-02-19T11:45:38;17.60;44.16
63899;HTU21D;50070;-32.946;-60.652;2023-02-19T11:48:31;17.95;43.32
63899;HTU21D;50070;-32.946;-60.652;2023-02-19T11:52:34;18.28;42.98
63899;HTU21D;50070;-32.946;-60.652;2023-02-19T12:02:45;18.72;42.76
63899;HTU21D;50070;-32.946;-60.652;2023-02-19T12:05:37;18.98;42.58
63899;HTU21D;50070;-32.946;-60.652;2023-02-19T12:08:28;19.05;40.98
63899;HTU21D;50070;-32.946;-60.652;2023-02-19T12:14:18;19.26;39.96
63899;HTU21D;50070;-32.946;-60.652;2023-02-19T12:17:02;19.20;40.91
63899;HTU21D;50070;-32.946;-60.652;2023-02-19T12:22:30;19.51;37.54
63899;HTU21D;50070;-32.946;-60.652;2023-02-19T12:38:40;20.21;37.46
63899;HTU21D;50070;-32.946;-60.652;2023-02-19T12:41:40;20.46;37.84
63899;HTU21D;50070;-32.946;-60.652;2023-02-19T12:44:21;20.64;37.63
63899;HTU21D;50070;-32.946;-60.652;2023-02-19T12:46:59;20.44;37.33
63899;HTU21D;50070;-32.946;-60.652;2023-02-19T12:49:39;20.36;37.62
63899;HTU21D;50070;-32.946;-60.652;2023-02-19T12:52:27;20.36;37.95
63899;HTU21D;50070;-32.946;-60.652;2023-02-19T12:55:20;20.55;37.22
63899;HTU21D;50070;-32.946;-60.652;2023-02-19T12:57:48;20.59;37.54
63899;HTU21D;50070;-32.946;-60.652;2023-02-19T13:06:05;20.49;36.59
63899;HTU21D;50070;-32.946;-60.652;2023-02-19T13:11:04;21.13;35.18
63899;HTU21D;50070;-32.946;-60.652;2023-02-19T13:16:17;21.27;34.08
63899;HTU21D;50070;-32.946;-60.652;2023-02-19T13:18:46;21.20;33.12
63899;HTU21D;50070;-32.946;-60.652;2023-02-19T13:21:16;21.34;32.67
63899;HTU21D;50070;-32.946;-60.652;2023-02-19T13:24:32;21.51;32.41
63899;HTU21D;50070;-32.946;-60.652;2023-02-19T13:32:51;22.05;31.51
63899;HTU21D;50070;-32.946;-60.652;2023-02-19T13:35:50;22.17;31.65
63899;HTU21D;50070;-32.946;-60.652;2023-02-19T13:38:20;22.23;32.30
63899;HTU21D;50070;-32.946;-60.652;2023-02-19T13:40:57;22.33;32.08
63899;HTU21D;50070;-32.946;-60.652;2023-02-19T13:43:31;22.28;30.61
63899;HTU21D;50070;-32.946;-60.652;2023-02-19T13:46:10;22.47;30.41
63899;HTU21D;50070;-32.946;-60.652;2023-02-19T13:48:40;22.49;29.92
63899;HTU21D;50070;-32.946;-60.652;2023-02-19T14:04:43;23.15;30.18
63899;HTU21D;50070;-32.946;-60.652;2023-02-19T14:14:52;23.22;29.49
63899;HTU21D;50070;-32.946;-60.652;2023-02-19T14:22:57;23.25;29.63
63899;HTU21D;50070;-32.946;-60.652;2023-02-19T14:30:59;23.16;29.77
63899;HTU21D;50070;-32.946;-60.652;2023-02-19T14:33:44;23.00;30.97
63899;HTU21D;50070;-32.946;-60.652;2023-02-19T14:39:09;23.90;27.87
63899;HTU21D;50070;-32.946;-60.652;2023-02-19T14:41:40;23.96;28.09
63899;HTU21D;50070;-32.946;-60.652;2023-02-19T14:44:17;24.19;27.89
63899;HTU21D;50070;-32.946;-60.652;2023-02-19T14:49:28;23.98;26.88
63899;HTU21D;50070;-32.946;-60.652;2023-02-19T14:52:02;24.26;25.59
63899;HTU21D;50070;-32.946;-60.652;2023-02-19T14:57:09;23.92;25.72
63899;HTU21D;50070;-32.946;-60.652;2023-02-19T14:59:37;24.41;25.07
63899;HTU21D;50070;-32.946;-60.652;2023-02-19T15:02:14;24.43;25.14
63899;HTU21D;50070;-32.946;-60.652;2023-02-19T15:04:42;24.56;25.25
63899;HTU21D;50070;-32.946;-60.652;2023-02-19T15:07:14;24.34;24.37
63899;HTU21D;50070;-32.946;-60.652;2023-02-19T15:09:48;24.34;25.01
63899;HTU21D;50070;-32.946;-60.652;2023-02-19T15:12:29;24.49;25.00
63899;HTU21D;50070;-32.946;-60.652;2023-02-19T15:15:02;25.02;25.03
63899;HTU21D;50070;-32.946;-60.652;2023-02-19T15:17:35;25.16;24.16
63899;HTU21D;50070;-32.946;-60.652;2023-02-19T15:20:09;24.80;23.58
63899;HTU21D;50070;-32.946;-60.652;2023-02-19T15:22:39;25.05;23.75
63899;HTU21D;50070;-32.946;-60.652;2023-02-19T15:25:21;25.12;24.10
63899;HTU21D;50070;-32.946;-60.652;2023-02-19T15:27:49;25.09;25.01
63899;HTU21D;50070;-32.946;-60.652;2023-02-19T15:30:25;25.16;25.55
63899;HTU21D;50070;-32.946;-60.652;2023-02-19T15:32:56;24.62;24.97
63899;HTU21D;50070;-32.946;-60.652;2023-02-19T15:35:25;25.05;25.05
63899;HTU21D;50070;-32.946;-60.652;2023-02-19T15:37:52;25.16;25.56
63899;HTU21D;50070;-32.946;-60.652;2023-02-19T15:40:29;24.77;25.37
63899;HTU21D;50070;-32.946;-60.652;2023-02-19T15:42:57;25.08;24.04
63899;HTU21D;50070;-32.946;-60.652;2023-02-19T15:45:28;24.89;23.30
63899;HTU21D;50070;-32.946;-60.652;2023-02-19T15:48:06;24.62;24.08
63899;HTU21D;50070;-32.946;-60.652;2023-02-19T15:50:34;25.14;24.09
63899;HTU21D;50070;-32.946;-60.652;2023-02-19T15:53:07;25.04;24.04
63899;HTU21D;50070;-32.946;-60.652;2023-02-19T16:01:06;25.39;22.31
63899;HTU21D;50070;-32.946;-60.652;2023-02-19T16:03:41;25.25;22.93
63899;HTU21D;50070;-32.946;-60.652;2023-02-19T16:06:13;25.46;22.42
63899;HTU21D;50070;-32.946;-60.652;2023-02-19T16:08:45;25.59;22.20
63899;HTU21D;50070;-32.946;-60.652;2023-02-19T16:11:28;25.13;22.45
63899;HTU21D;50070;-32.946;-60.652;2023-02-19T16:19:51;25.24;22.23
63899;HTU21D;50070;-32.946;-60.652;2023-02-19T16:22:22;25.48;22.40
63899;HTU21D;50070;-32.946;-60.652;2023-02-19T16:24:55;25.52;21.66
63899;HTU21D;50070;-32.946;-60.652;2023-02-19T16:27:39;25.27;22.75
63899;HTU21D;50070;-32.946;-60.652;2023-02-19T16:33:26;25.44;22.84
63899;HTU21D;50070;-32.946;-60.652;2023-02-19T16:35:57;25.48;22.40
63899;HTU21D;50070;-32.946;-60.652;2023-02-19T16:38:24;25.39;22.42
63899;HTU21D;50070;-32.946;-60.652;2023-02-19T16:43:29;25.92;22.47
63899;HTU21D;50070;-32.946;-60.652;2023-02-19T16:45:57;25.25;22.53
63899;HTU21D;50070;-32.946;-60.652;2023-02-19T16:48:25;25.81;22.85
63899;HTU21D;50070;-32.946;-60.652;2023-02-19T16:50:53;25.82;22.34
63899;HTU21D;50070;-32.946;-60.652;2023-02-19T16:53:22;25.88;22.32
63899;HTU21D;50070;-32.946;-60.652;2023-02-19T16:55:53;26.09;22.72
63899;HTU21D;50070;-32.946;-60.652;2023-02-19T16:58:20;26.25;22.54
63899;HTU21D;50070;-32.946;-60.652;2023-02-19T17:00:47;26.25;21.85
63899;HTU21D;50070;-32.946;-60.652;2023-02-19T17:03:18;25.94;21.81
63899;HTU21D;50070;-32.946;-60.652;2023-02-19T17:05:45;25.98;21.66
63899;HTU21D;50070;-32.946;-60.652;2023-02-19T17:10:57;26.58;20.93
63899;HTU21D;50070;-32.946;-60.652;2023-02-19T17:13:24;26.40;20.75
63899;HTU21D;50070;-32.946;-60.652;2023-02-19T17:15:50;26.69;20.41
63899;HTU21D;50070;-32.946;-60.652;2023-02-19T17:18:17;26.67;20.60
63899;HTU21D;50070;-32.946;-60.652;2023-02-19T17:20:54;26.68;20.96
63899;HTU21D;50070;-32.946;-60.652;2023-02-19T17:23:22;26.78;20.99
63899;HTU21D;50070;-32.946;-60.652;2023-02-19T17:25:48;26.90;21.37
63899;HTU21D;50070;-32.946;-60.652;2023-02-19T17:28:18;27.11;20.07
63899;HTU21D;50070;-32.946;-60.652;2023-02-19T17:30:44;26.89;20.17
63899;HTU21D;50070;-32.946;-60.652;2023-02-19T17:33:11;26.69;20.63